Time;durP1;ratioP1;P1;durP2;ratioP2;P2;SDS_P1;SDS_P2;PMS_P1;PMS_P2;Temp;Humidity;BMP_temperature;BMP_pressure;BME280_temperature;BME280_humidity;BME280_pressure;Samples;Min_cycle;Max_cycle;Signal;HPM_P1;HPM_P2
2022/01/31 00:00:20;;;;;;;394.70;27.87;;;4.30;99.90;;;;;;4995658;28;20471;-78
2022/01/31 00:02:49;;;;;;;281.37;16.33;;;4.30;99.90;;;;;;4994978;28;20449;-78
2022/01/31 00:05:18;;;;;;;265.50;21.17;;;4.30;99.90;;;;;;4994616;28;20467;-78
2022/01/31 00:07:46;;;;;;;151.00;16.53;;;4.20;99.90;;;;;;4985766;28;20486;-78
2022/01/31 00:10:17;;;;;;;263.07;18.20;;;4.20;99.90;;;;;;4994588;28;20440;-78
2022/01/31 00:12:54;;;;;;;534.27;68.93;;;4.20;99.90;;;;;;4991205;28;20515;-79
2022/01/31 00:15:24;;;;;;;176.77;23.47;;;4.30;99.90;;;;;;4956429;28;20488;-78
2022/01/31 00:17:52;;;;;;;216.33;18.60;;;4.20;99.90;;;;;;4966772;28;20478;-78
2022/01/31 00:20:21;;;;;;;109.10;17.97;;;4.20;99.90;;;;;;4974042;28;20466;-78
2022/01/31 00:22:49;;;;;;;160.70;23.87;;;4.20;99.90;;;;;;4955028;28;20489;-78
2022/01/31 00:25:17;;;;;;;374.77;52.70;;;4.20;99.90;;;;;;4954889;28;20536;-78
2022/01/31 00:27:47;;;;;;;161.13;15.13;;;4.20;99.90;;;;;;4958354;28;21053;-78
2022/01/31 00:30:17;;;;;;;374.90;27.97;;;4.20;99.90;;;;;;4973938;28;20485;-78
2022/01/31 00:32:47;;;;;;;439.90;40.63;;;4.20;99.90;;;;;;4963404;28;20546;-78
2022/01/31 00:35:16;;;;;;;469.43;44.10;;;4.20;99.90;;;;;;4971174;28;20468;-78
2022/01/31 00:37:44;;;;;;;439.60;28.40;;;4.20;99.90;;;;;;4974387;28;20472;-78
2022/01/31 00:40:13;;;;;;;170.20;15.63;;;4.20;99.90;;;;;;4974138;28;20458;-78
2022/01/31 00:42:41;;;;;;;181.30;20.10;;;4.20;99.90;;;;;;4975615;28;20981;-78
2022/01/31 00:45:14;;;;;;;267.90;24.67;;;4.10;99.90;;;;;;4973207;28;20479;-78
2022/01/31 00:47:46;;;;;;;302.43;24.60;;;4.20;99.90;;;;;;4982722;28;20491;-78
2022/01/31 00:50:18;;;;;;;564.90;53.40;;;4.10;99.90;;;;;;4992190;28;20475;-78
2022/01/31 00:52:47;;;;;;;567.57;58.23;;;4.10;99.90;;;;;;4994118;28;20844;-78
2022/01/31 00:55:15;;;;;;;459.20;43.73;;;4.10;99.90;;;;;;4959292;28;20447;-78
2022/01/31 00:57:44;;;;;;;531.03;52.20;;;4.10;99.90;;;;;;4958446;28;20516;-78
2022/01/31 01:00:14;;;;;;;146.47;25.10;;;4.10;99.90;;;;;;4972914;28;20901;-77
2022/01/31 01:02:44;;;;;;;686.07;53.87;;;4.10;99.90;;;;;;4972654;28;20461;-77
2022/01/31 01:05:12;;;;;;;509.23;46.03;;;4.10;99.90;;;;;;4973129;28;20456;-78
2022/01/31 01:07:45;;;;;;;235.97;19.03;;;4.10;99.90;;;;;;4972651;28;20853;-78
2022/01/31 01:10:15;;;;;;;97.37;14.80;;;4.10;99.90;;;;;;4972817;28;20860;-78
2022/01/31 01:12:43;;;;;;;138.43;16.67;;;4.10;99.90;;;;;;4973149;28;20813;-78
2022/01/31 01:15:12;;;;;;;250.57;21.83;;;4.10;99.90;;;;;;4975819;28;20503;-78
2022/01/31 01:17:41;;;;;;;195.47;18.97;;;4.10;99.90;;;;;;4976335;28;20470;-79
2022/01/31 01:20:10;;;;;;;626.90;42.43;;;4.10;99.90;;;;;;4977494;28;20452;-78
2022/01/31 01:22:39;;;;;;;785.50;85.37;;;4.10;99.90;;;;;;4962853;28;20971;-78
2022/01/31 01:25:10;;;;;;;831.73;110.23;;;4.10;99.90;;;;;;4982746;28;20472;-79
2022/01/31 01:27:40;;;;;;;605.17;94.47;;;4.10;99.90;;;;;;4982435;28;20470;-79
2022/01/31 01:30:11;;;;;;;734.27;95.90;;;4.10;99.90;;;;;;4981265;28;20479;-78
2022/01/31 01:32:48;;;;;;;934.03;105.57;;;4.10;99.90;;;;;;4976622;28;20507;-78
2022/01/31 01:35:18;;;;;;;990.57;133.00;;;4.10;99.90;;;;;;4974611;28;20470;-78
2022/01/31 01:37:47;;;;;;;780.97;110.97;;;4.10;99.90;;;;;;4959660;28;20565;-78
2022/01/31 01:40:16;;;;;;;662.53;88.03;;;4.10;99.90;;;;;;4995774;28;20511;-77
2022/01/31 01:42:44;;;;;;;1113.70;116.00;;;4.10;99.90;;;;;;4994638;28;20455;-78
2022/01/31 01:45:13;;;;;;;1045.80;99.80;;;4.10;99.90;;;;;;4976261;28;20531;-78
2022/01/31 01:47:43;;;;;;;1449.03;171.07;;;4.10;99.90;;;;;;4975670;28;20480;-78
2022/01/31 01:50:11;;;;;;;882.23;112.50;;;4.10;99.90;;;;;;4974848;28;20488;-78
2022/01/31 01:52:39;;;;;;;924.50;105.97;;;4.10;99.90;;;;;;4966129;28;20548;-78
2022/01/31 01:55:08;;;;;;;939.90;110.50;;;4.10;99.90;;;;;;4964661;28;20837;-78
2022/01/31 01:57:40;;;;;;;909.00;95.70;;;4.10;99.90;;;;;;4995040;28;20489;-78
2022/01/31 02:00:15;;;;;;;1115.13;106.73;;;4.10;99.90;;;;;;4995395;28;20965;-78
2022/01/31 02:02:44;;;;;;;1018.27;88.03;;;4.00;99.90;;;;;;4996830;28;20440;-78
2022/01/31 02:05:16;;;;;;;933.57;100.10;;;4.00;99.90;;;;;;4994657;28;20863;-77
2022/01/31 02:07:45;;;;;;;847.47;113.20;;;4.00;99.90;;;;;;4992213;28;20564;-78
2022/01/31 02:10:16;;;;;;;763.37;81.17;;;4.00;99.90;;;;;;4964887;28;20507;-77
2022/01/31 02:13:07;;;;;;;921.00;121.73;;;4.00;99.90;;;;;;4955942;28;20461;-77
2022/01/31 02:15:55;;;;;;;904.03;128.57;;;4.00;99.90;;;;;;4956972;28;20454;-78
2022/01/31 02:18:48;;;;;;;765.77;94.50;;;4.00;99.90;;;;;;4955928;29;20899;-77
2022/01/31 02:21:38;;;;;;;812.30;68.83;;;4.10;99.90;;;;;;5007096;28;20529;-78
2022/01/31 02:24:25;;;;;;;778.97;82.77;;;4.10;99.90;;;;;;4957045;29;20445;-78
2022/01/31 02:27:24;;;;;;;456.63;44.77;;;4.00;99.90;;;;;;4956090;28;20978;-78
2022/01/31 02:29:53;;;;;;;452.93;63.57;;;4.00;99.90;;;;;;4955728;28;20505;-77
2022/01/31 02:32:22;;;;;;;818.03;99.93;;;4.00;99.90;;;;;;4959342;28;20446;-78
2022/01/31 02:34:58;;;;;;;908.27;109.43;;;4.00;99.90;;;;;;4955652;28;20537;-77
2022/01/31 02:37:28;;;;;;;642.40;81.00;;;4.10;99.90;;;;;;4973553;28;20471;-78
2022/01/31 02:40:09;;;;;;;616.20;64.37;;;4.00;99.90;;;;;;4975025;28;20465;-78
2022/01/31 02:42:37;;;;;;;551.57;85.33;;;4.10;99.90;;;;;;4956254;28;20487;-78
2022/01/31 02:45:06;;;;;;;716.23;76.50;;;4.10;99.90;;;;;;4955279;28;20889;-77
2022/01/31 02:47:40;;;;;;;699.70;71.30;;;4.10;99.90;;;;;;4963200;28;20489;-78
2022/01/31 02:50:12;;;;;;;576.23;98.13;;;4.00;99.90;;;;;;4975972;28;20499;-78
2022/01/31 02:52:47;;;;;;;942.87;111.23;;;4.10;99.90;;;;;;4971393;28;20879;-77
2022/01/31 02:55:18;;;;;;;1098.93;131.43;;;4.10;99.90;;;;;;4955582;28;20493;-77
2022/01/31 02:57:46;;;;;;;544.13;77.00;;;4.10;99.90;;;;;;4955316;28;20474;-78
2022/01/31 03:00:15;;;;;;;1063.53;136.80;;;4.10;99.90;;;;;;4955091;28;20538;-78
2022/01/31 03:03:10;;;;;;;683.30;90.17;;;4.10;99.90;;;;;;4960120;28;20533;-77
2022/01/31 03:05:39;;;;;;;955.67;137.80;;;4.10;99.90;;;;;;4955823;28;20494;-77
2022/01/31 03:08:09;;;;;;;938.27;129.30;;;4.10;99.90;;;;;;4955029;28;20477;-78
2022/01/31 03:10:38;;;;;;;705.43;76.27;;;4.10;99.90;;;;;;4971386;28;20462;-77
2022/01/31 03:13:07;;;;;;;859.27;116.27;;;4.10;99.90;;;;;;4974821;28;20888;-77
2022/01/31 03:15:43;;;;;;;783.73;114.93;;;4.10;99.90;;;;;;4992769;28;20484;-78
2022/01/31 03:18:11;;;;;;;960.27;129.47;;;4.00;99.90;;;;;;4995214;28;20978;-78
2022/01/31 03:20:41;;;;;;;959.10;151.20;;;4.10;99.90;;;;;;4988624;28;20970;-77
2022/01/31 03:23:13;;;;;;;1084.53;99.63;;;4.10;99.90;;;;;;4974107;28;20456;-78
2022/01/31 03:25:41;;;;;;;1042.37;96.13;;;4.10;99.90;;;;;;4974002;28;20499;-78
2022/01/31 03:28:09;;;;;;;1213.77;126.73;;;4.10;99.90;;;;;;4958760;28;20496;-77
2022/01/31 03:30:38;;;;;;;1160.27;135.50;;;4.10;99.90;;;;;;4954870;28;20459;-77
2022/01/31 03:33:06;;;;;;;936.70;104.03;;;4.10;99.90;;;;;;4954405;28;20884;-78
2022/01/31 03:35:35;;;;;;;951.67;100.13;;;4.10;99.90;;;;;;4954950;28;20819;-78
2022/01/31 03:38:04;;;;;;;806.57;104.60;;;4.10;99.90;;;;;;4954334;28;20470;-77
2022/01/31 03:40:33;;;;;;;1099.43;137.37;;;4.10;99.90;;;;;;4954579;28;20443;-78
2022/01/31 03:43:02;;;;;;;1341.27;170.67;;;4.00;99.90;;;;;;4961579;28;20528;-78
2022/01/31 03:45:33;;;;;;;1779.70;200.97;;;4.00;99.90;;;;;;4974252;28;20489;-78
2022/01/31 03:48:13;;;;;;;1342.20;136.00;;;4.00;99.90;;;;;;4973970;28;20477;-78
2022/01/31 03:50:44;;;;;;;881.93;109.67;;;4.00;99.90;;;;;;4974139;28;20832;-77
2022/01/31 03:53:12;;;;;;;1258.47;164.80;;;4.00;99.90;;;;;;4958696;28;20493;-78
2022/01/31 03:55:42;;;;;;;1205.70;156.57;;;3.90;99.90;;;;;;4955308;28;20505;-78
2022/01/31 03:58:11;;;;;;;1333.27;163.30;;;3.90;99.90;;;;;;4954628;28;21080;-78
2022/01/31 04:00:50;;;;;;;1494.03;210.43;;;3.90;99.90;;;;;;4954848;28;20454;-78
2022/01/31 04:03:18;;;;;;;1923.23;237.83;;;3.90;99.90;;;;;;4956319;28;20462;-78
2022/01/31 04:05:47;;;;;;;1999.90;286.00;;;3.80;99.90;;;;;;4959525;28;20438;-78
2022/01/31 04:08:15;;;;;;;1999.90;302.83;;;3.90;99.90;;;;;;4987068;28;20483;-79
2022/01/31 04:10:44;;;;;;;1999.90;361.50;;;3.80;99.90;;;;;;4990290;28;20826;-78
2022/01/31 04:13:16;;;;;;;1666.87;243.23;;;3.70;99.90;;;;;;4974300;28;20444;-77
2022/01/31 04:15:44;;;;;;;1723.67;228.03;;;3.70;99.90;;;;;;4974296;28;20798;-78
2022/01/31 04:18:13;;;;;;;1932.43;286.53;;;3.70;99.90;;;;;;4974857;28;20465;-78
2022/01/31 04:20:41;;;;;;;1999.90;336.43;;;3.70;99.90;;;;;;4974914;28;20553;-78
2022/01/31 04:23:13;;;;;;;1999.90;274.93;;;3.70;99.90;;;;;;4964002;28;20972;-78
2022/01/31 04:25:51;;;;;;;1999.90;383.90;;;3.60;99.90;;;;;;4966988;28;20939;-78
2022/01/31 04:28:22;;;;;;;1999.90;440.07;;;3.60;99.90;;;;;;4956428;28;21013;-79
2022/01/31 04:30:55;;;;;;;1999.90;343.17;;;3.60;99.90;;;;;;4956552;28;20476;-78
2022/01/31 04:33:27;;;;;;;1999.90;374.17;;;3.50;99.90;;;;;;4958941;28;20485;-79
2022/01/31 04:35:56;;;;;;;1999.90;377.83;;;3.50;99.90;;;;;;4963804;28;20493;-79
2022/01/31 04:38:24;;;;;;;1999.90;406.60;;;3.50;99.90;;;;;;4981837;28;20472;-79
2022/01/31 04:40:54;;;;;;;688.03;68.40;;;3.40;99.90;;;;;;4985167;28;20448;-79
2022/01/31 04:43:22;;;;;;;1999.90;333.30;;;3.40;99.90;;;;;;4970764;28;20466;-79
2022/01/31 04:45:50;;;;;;;1999.90;359.83;;;3.40;99.90;;;;;;4995676;28;20815;-79
2022/01/31 04:48:20;;;;;;;1999.90;283.47;;;3.40;99.90;;;;;;4976939;28;20453;-78
2022/01/31 04:50:49;;;;;;;1999.90;401.50;;;3.30;99.90;;;;;;4977567;28;20477;-78
2022/01/31 04:53:17;;;;;;;1999.90;386.97;;;3.30;99.90;;;;;;4977112;28;20441;-78
2022/01/31 04:55:45;;;;;;;1999.90;360.47;;;3.30;99.90;;;;;;4977471;28;20448;-79
2022/01/31 04:58:15;;;;;;;1999.90;310.57;;;3.30;99.90;;;;;;4976699;28;20538;-78
2022/01/31 05:00:44;;;;;;;558.87;71.23;;;3.30;99.90;;;;;;4977699;28;20430;-79
2022/01/31 05:03:14;;;;;;;1999.90;283.03;;;3.20;99.90;;;;;;4977761;28;20843;-78
2022/01/31 05:05:44;;;;;;;1930.70;294.30;;;3.20;99.90;;;;;;4974502;28;20462;-79
2022/01/31 05:08:13;;;;;;;677.70;47.50;;;3.20;99.90;;;;;;4958258;28;20471;-78
2022/01/31 05:10:45;;;;;;;1999.90;396.77;;;3.10;99.90;;;;;;4973365;28;20477;-78
2022/01/31 05:13:15;;;;;;;1999.90;362.17;;;3.10;99.90;;;;;;4977630;28;20460;-79
2022/01/31 05:15:44;;;;;;;829.30;75.83;;;3.10;99.90;;;;;;4977441;28;20927;-78
2022/01/31 05:18:17;;;;;;;1999.90;365.57;;;3.10;99.90;;;;;;4977797;28;20519;-79
2022/01/31 05:20:45;;;;;;;1999.90;469.03;;;3.10;99.90;;;;;;4978533;28;20445;-79
2022/01/31 05:23:13;;;;;;;1999.90;397.50;;;3.10;99.90;;;;;;4977466;28;20445;-79
2022/01/31 05:25:41;;;;;;;1999.90;404.77;;;3.00;99.90;;;;;;4975296;28;20445;-79
2022/01/31 05:28:11;;;;;;;1999.90;373.77;;;3.00;99.90;;;;;;4973995;28;20478;-79
2022/01/31 05:30:44;;;;;;;595.27;59.97;;;3.00;99.90;;;;;;4958080;28;20505;-78
2022/01/31 05:33:12;;;;;;;456.97;47.03;;;3.00;99.90;;;;;;4958309;28;20445;-78
2022/01/31 05:35:40;;;;;;;1999.90;423.40;;;3.00;99.90;;;;;;4958174;29;20445;-78
2022/01/31 05:38:08;;;;;;;1999.90;347.60;;;3.00;99.90;;;;;;4972887;28;20483;-79
2022/01/31 05:40:37;;;;;;;1999.90;380.43;;;3.00;99.90;;;;;;4977751;28;20446;-78
2022/01/31 05:43:05;;;;;;;286.60;41.90;;;2.90;99.90;;;;;;4968644;28;20450;-78
2022/01/31 05:45:33;;;;;;;425.33;42.13;;;3.00;99.90;;;;;;4959629;28;20464;-79
2022/01/31 05:48:03;;;;;;;646.27;65.97;;;3.00;99.90;;;;;;4969416;28;20480;-79
2022/01/31 05:50:31;;;;;;;468.77;60.13;;;2.90;99.90;;;;;;4972712;28;20473;-79
2022/01/31 05:52:59;;;;;;;1677.30;256.70;;;3.00;99.90;;;;;;4957776;28;20442;-79
2022/01/31 05:55:28;;;;;;;1999.90;443.03;;;3.00;99.90;;;;;;4958715;28;20445;-78
2022/01/31 05:57:56;;;;;;;640.97;65.07;;;3.00;99.90;;;;;;4958164;28;20477;-79
2022/01/31 06:00:27;;;;;;;1999.90;486.50;;;3.00;99.90;;;;;;4958248;28;20464;-78
2022/01/31 06:02:58;;;;;;;1999.90;347.83;;;2.90;99.90;;;;;;4960660;28;20508;-78
2022/01/31 06:05:30;;;;;;;1999.90;417.57;;;2.90;99.90;;;;;;4959242;28;20450;-78
2022/01/31 06:07:59;;;;;;;1999.90;418.83;;;2.90;99.90;;;;;;4958576;28;20524;-78
2022/01/31 06:10:32;;;;;;;1999.90;405.33;;;2.90;99.90;;;;;;4960717;28;20459;-79
2022/01/31 09:10:44;;;;;;;1907.37;482.77;;;4.70;99.90;;;;;;4957322;29;20383;-79
2022/01/31 09:13:17;;;;;;;1999.90;999.90;;;4.90;99.90;;;;;;4955201;28;20542;-78
2022/01/31 09:15:45;;;;;;;1516.73;268.57;;;5.00;99.90;;;;;;4956005;28;20554;-78
2022/01/31 09:18:14;;;;;;;990.60;234.27;;;5.00;99.90;;;;;;4955983;28;20885;-79
2022/01/31 09:20:42;;;;;;;1871.77;336.90;;;5.10;99.90;;;;;;4956547;28;20489;-79
2022/01/31 09:23:10;;;;;;;1284.40;261.77;;;5.10;99.90;;;;;;4956550;28;20827;-79
2022/01/31 09:25:44;;;;;;;756.27;160.27;;;5.20;99.90;;;;;;4955660;28;20968;-78
2022/01/31 09:28:16;;;;;;;1439.50;279.63;;;5.20;99.90;;;;;;4955428;28;20826;-79
2022/01/31 09:30:45;;;;;;;856.53;174.33;;;5.30;99.90;;;;;;4955295;28;20462;-78
2022/01/31 09:33:17;;;;;;;373.00;54.77;;;5.30;99.90;;;;;;4956272;28;20467;-78
2022/01/31 09:35:46;;;;;;;375.23;98.63;;;5.40;99.90;;;;;;4957904;28;20451;-78
2022/01/31 09:38:18;;;;;;;330.53;47.53;;;5.40;99.90;;;;;;4958643;28;20561;-78
2022/01/31 09:40:46;;;;;;;321.27;44.13;;;5.40;99.90;;;;;;4959191;28;20482;-78
2022/01/31 09:46:33;;;;;;;579.43;109.53;;;5.50;99.90;;;;;;4956562;28;20821;-78
2022/01/31 09:49:01;;;;;;;710.60;185.97;;;5.60;99.90;;;;;;4958936;28;20995;-78
2022/01/31 09:51:30;;;;;;;425.93;50.13;;;5.60;99.90;;;;;;4959339;28;21004;-79
2022/01/31 09:54:00;;;;;;;376.63;54.70;;;5.60;99.90;;;;;;4960258;28;20560;-79
2022/01/31 09:56:33;;;;;;;269.10;53.90;;;5.70;99.90;;;;;;4958927;28;20518;-79
2022/01/31 09:59:03;;;;;;;407.27;48.33;;;5.70;99.90;;;;;;4960588;28;20477;-78
2022/01/31 10:01:33;;;;;;;401.57;59.43;;;5.70;99.90;;;;;;4959270;28;20471;-78
2022/01/31 10:04:07;;;;;;;393.53;57.77;;;5.70;99.90;;;;;;4958571;28;20476;-79
2022/01/31 10:06:37;;;;;;;414.13;41.93;;;5.70;99.90;;;;;;4959089;29;20454;-79
2022/01/31 10:09:09;;;;;;;65.07;50.70;;;5.70;99.90;;;;;;4958458;28;20481;-78
2022/01/31 10:11:43;;;;;;;377.87;30.50;;;5.80;99.90;;;;;;4960399;28;20467;-79
2022/01/31 10:17:04;;;;;;;262.93;37.93;;;5.80;99.90;;;;;;4959967;28;20427;-79
2022/01/31 10:19:52;;;;;;;441.50;44.30;;;5.80;99.90;;;;;;4958933;28;20526;-79
2022/01/31 10:22:23;;;;;;;345.27;44.80;;;5.80;99.90;;;;;;4958587;29;20466;-79
2022/01/31 10:24:56;;;;;;;426.37;48.40;;;5.90;99.90;;;;;;4960233;28;20542;-78
2022/01/31 10:27:27;;;;;;;447.67;50.27;;;6.00;99.90;;;;;;4959612;28;20470;-78
2022/01/31 10:30:08;;;;;;;437.17;42.10;;;6.00;99.90;;;;;;4958086;28;20439;-78
2022/01/31 10:32:39;;;;;;;410.40;39.27;;;6.00;99.90;;;;;;4959565;28;20530;-78
2022/01/31 10:35:09;;;;;;;433.07;46.57;;;6.00;99.90;;;;;;4957760;28;20443;-78
2022/01/31 10:38:02;;;;;;;485.80;51.93;;;6.10;99.90;;;;;;4958482;28;20558;-78
2022/01/31 10:46:11;;;;;;;379.87;45.77;;;6.20;99.90;;;;;;4958846;28;20455;-78
2022/01/31 10:51:57;;;;;;;471.63;47.00;;;6.20;99.90;;;;;;4906335;28;20994;-79
2022/01/31 10:54:37;;;;;;;377.47;46.97;;;6.30;99.90;;;;;;4957758;28;20455;-78
2022/01/31 10:57:08;;;;;;;366.83;31.57;;;6.30;99.90;;;;;;4959016;28;20489;-79
2022/01/31 10:59:40;;;;;;;318.40;34.37;;;6.30;99.90;;;;;;4960130;28;20447;-79
2022/01/31 11:02:18;;;;;;;268.87;30.27;;;6.30;99.90;;;;;;4960374;28;20523;-79
2022/01/31 11:04:48;;;;;;;429.37;48.63;;;6.40;99.90;;;;;;4962410;28;20496;-79
2022/01/31 11:07:18;;;;;;;188.23;24.33;;;6.40;99.90;;;;;;4958408;28;20461;-79
2022/01/31 11:09:49;;;;;;;223.57;43.37;;;6.40;99.90;;;;;;4956387;28;20461;-78
2022/01/31 11:12:22;;;;;;;367.93;28.67;;;6.50;99.90;;;;;;4955571;28;20474;-78
2022/01/31 11:14:53;;;;;;;69.27;16.53;;;6.40;99.90;;;;;;4957637;28;20426;-78
2022/01/31 11:17:24;;;;;;;274.20;37.07;;;6.40;99.90;;;;;;4957376;28;20442;-78
2022/01/31 11:19:57;;;;;;;396.20;48.53;;;6.50;99.90;;;;;;4956760;28;20439;-79
2022/01/31 11:22:31;;;;;;;306.23;35.07;;;6.50;99.90;;;;;;4955711;28;20438;-78
2022/01/31 11:25:18;;;;;;;324.43;43.73;;;6.50;99.90;;;;;;4955752;28;20530;-78
2022/01/31 11:27:53;;;;;;;430.17;50.53;;;6.50;99.90;;;;;;4955760;28;20508;-78
2022/01/31 11:30:23;;;;;;;304.20;30.43;;;6.50;99.90;;;;;;4957504;28;20491;-78
2022/01/31 11:32:54;;;;;;;379.73;42.57;;;6.50;99.90;;;;;;4955719;28;20513;-79
2022/01/31 11:35:23;;;;;;;378.80;39.80;;;6.50;99.90;;;;;;4957211;28;20427;-78
2022/01/31 11:37:53;;;;;;;421.63;43.07;;;6.60;99.90;;;;;;4954630;28;20557;-78
2022/01/31 11:40:22;;;;;;;323.27;39.37;;;6.60;99.90;;;;;;4955183;29;20566;-78
2022/01/31 11:42:52;;;;;;;259.50;33.40;;;6.60;99.90;;;;;;4955514;28;20453;-78
2022/01/31 11:45:25;;;;;;;329.97;45.47;;;6.60;99.90;;;;;;4956106;28;20470;-78
2022/01/31 11:47:58;;;;;;;476.23;37.20;;;6.60;99.90;;;;;;4956674;28;20475;-79
2022/01/31 11:53:32;;;;;;;519.07;55.07;;;6.60;99.90;;;;;;4943806;28;20474;-78
2022/01/31 11:56:10;;;;;;;301.00;40.20;;;6.60;99.90;;;;;;4957971;28;20430;-79
2022/01/31 11:58:48;;;;;;;205.00;30.57;;;6.70;99.90;;;;;;4955290;28;20538;-78
2022/01/31 12:01:16;;;;;;;343.90;43.10;;;6.70;99.90;;;;;;4957846;28;20459;-78
2022/01/31 12:03:54;;;;;;;350.30;40.40;;;6.70;99.90;;;;;;4956315;28;20450;-78
2022/01/31 12:06:38;;;;;;;423.13;39.83;;;6.70;99.90;;;;;;4956529;28;20477;-79
2022/01/31 12:09:12;;;;;;;257.40;41.27;;;6.70;99.90;;;;;;4958213;28;20529;-78
2022/01/31 12:11:56;;;;;;;300.00;27.00;;;6.80;99.90;;;;;;4958234;28;20471;-78
2022/01/31 12:14:42;;;;;;;279.37;43.43;;;6.80;99.90;;;;;;4958018;28;20431;-78
2022/01/31 12:17:50;;;;;;;321.87;34.70;;;6.80;99.90;;;;;;4956955;28;20463;-79
2022/01/31 12:23:49;;;;;;;343.63;47.03;;;6.90;99.90;;;;;;4956708;28;20439;-78
2022/01/31 12:26:45;;;;;;;371.97;49.70;;;7.00;99.90;;;;;;4958513;28;20459;-79
2022/01/31 12:29:15;;;;;;;362.83;43.77;;;7.00;99.90;;;;;;4955730;28;21065;-78
2022/01/31 12:31:47;;;;;;;463.87;45.67;;;7.00;99.90;;;;;;4957457;28;20451;-79
2022/01/31 12:34:33;;;;;;;274.60;34.07;;;7.10;99.90;;;;;;4956177;28;20447;-79
2022/01/31 12:37:17;;;;;;;418.50;41.97;;;7.10;99.90;;;;;;4956643;28;20454;-78
2022/01/31 12:40:05;;;;;;;362.10;44.83;;;7.10;99.90;;;;;;4956412;29;20450;-78
2022/01/31 12:42:57;;;;;;;429.17;72.70;;;7.20;99.90;;;;;;4956199;28;20459;-79
2022/01/31 12:45:33;;;;;;;360.63;34.07;;;7.20;99.90;;;;;;4956601;28;20459;-78
2022/01/31 12:48:22;;;;;;;240.70;35.77;;;7.20;99.90;;;;;;4956704;29;20478;-78
2022/01/31 12:51:03;;;;;;;285.03;41.90;;;7.30;99.90;;;;;;4957706;28;20452;-78
2022/01/31 12:53:48;;;;;;;290.97;35.40;;;7.30;99.90;;;;;;4955709;28;20546;-78
2022/01/31 12:56:24;;;;;;;224.53;25.67;;;7.30;99.90;;;;;;4956298;28;20829;-78
2022/01/31 12:58:55;;;;;;;249.57;44.10;;;7.20;99.90;;;;;;4957806;28;20882;-78
2022/01/31 13:01:26;;;;;;;309.37;48.40;;;7.30;99.90;;;;;;4957568;28;20492;-78
2022/01/31 13:03:58;;;;;;;331.80;39.50;;;7.30;99.90;;;;;;4956163;28;20949;-78
2022/01/31 13:06:33;;;;;;;129.90;31.53;;;7.30;99.90;;;;;;4954687;28;20500;-78
2022/01/31 13:09:10;;;;;;;345.07;54.00;;;7.20;99.90;;;;;;4955073;28;20478;-78
2022/01/31 13:11:39;;;;;;;330.50;49.37;;;7.20;99.90;;;;;;4956175;28;20947;-79
2022/01/31 13:14:10;;;;;;;335.23;50.23;;;7.10;99.90;;;;;;4955736;28;20481;-78
2022/01/31 13:17:10;;;;;;;361.90;55.80;;;7.00;99.90;;;;;;4956960;29;20909;-79
2022/01/31 13:19:41;;;;;;;368.60;62.07;;;6.90;99.90;;;;;;4956352;28;20455;-79
2022/01/31 13:22:13;;;;;;;415.17;42.07;;;6.80;99.90;;;;;;4956767;28;20811;-79
2022/01/31 13:24:46;;;;;;;442.43;54.07;;;6.80;99.90;;;;;;4956501;28;20513;-79
2022/01/31 13:27:19;;;;;;;444.87;61.37;;;6.70;99.90;;;;;;4957544;28;20493;-79
2022/01/31 13:30:09;;;;;;;339.70;63.07;;;6.60;99.90;;;;;;4956197;28;20559;-79
2022/01/31 13:32:38;;;;;;;418.07;61.73;;;6.60;99.90;;;;;;4956247;28;20463;-79
2022/01/31 13:35:09;;;;;;;264.33;41.93;;;6.50;99.90;;;;;;4956340;28;20553;-79
2022/01/31 13:37:46;;;;;;;302.87;47.33;;;6.40;99.90;;;;;;4956556;28;20574;-80
2022/01/31 13:40:29;;;;;;;376.07;46.03;;;6.40;99.90;;;;;;4956462;28;20461;-79
2022/01/31 13:43:17;;;;;;;435.30;68.80;;;6.30;99.90;;;;;;4957758;28;20473;-79
2022/01/31 13:45:53;;;;;;;267.37;47.07;;;6.30;99.90;;;;;;4955886;28;20473;-79
2022/01/31 13:48:39;;;;;;;382.23;59.10;;;6.20;99.90;;;;;;4955955;28;21064;-79
2022/01/31 13:51:12;;;;;;;311.17;60.10;;;6.20;99.90;;;;;;4957713;28;20438;-79
2022/01/31 13:53:42;;;;;;;488.17;68.17;;;6.10;99.90;;;;;;4957464;28;20550;-79
2022/01/31 13:56:14;;;;;;;256.90;44.83;;;6.10;99.90;;;;;;4957209;28;20457;-79
2022/01/31 13:58:44;;;;;;;421.27;60.73;;;6.10;99.90;;;;;;4956530;28;20498;-79
2022/01/31 14:01:21;;;;;;;337.33;53.23;;;6.00;99.90;;;;;;4956737;28;20902;-79
2022/01/31 14:03:50;;;;;;;758.20;170.87;;;6.00;99.90;;;;;;4955894;28;20468;-80
2022/01/31 14:06:19;;;;;;;987.40;230.73;;;6.00;99.90;;;;;;4956051;28;20479;-79
2022/01/31 14:08:49;;;;;;;117.97;75.63;;;5.90;99.90;;;;;;4956125;28;20478;-79
2022/01/31 14:11:20;;;;;;;1275.33;309.67;;;5.90;99.90;;;;;;4960695;28;20447;-79
2022/01/31 14:13:50;;;;;;;979.33;263.87;;;5.80;99.90;;;;;;4960615;28;20538;-79
2022/01/31 14:16:22;;;;;;;1318.97;341.07;;;5.80;99.90;;;;;;4962027;28;20439;-79
2022/01/31 14:18:52;;;;;;;1406.00;349.43;;;5.70;99.90;;;;;;4958284;28;20478;-79
2022/01/31 14:21:21;;;;;;;854.97;241.20;;;5.70;99.90;;;;;;4957746;28;20451;-79
2022/01/31 14:23:51;;;;;;;930.50;264.20;;;5.70;99.90;;;;;;4960074;28;20459;-79
2022/01/31 14:26:23;;;;;;;1929.57;385.77;;;5.60;99.90;;;;;;4960776;28;20470;-79
2022/01/31 14:28:55;;;;;;;1822.33;322.77;;;5.70;99.90;;;;;;4959338;28;20470;-79
2022/01/31 14:31:31;;;;;;;1916.23;356.60;;;5.60;99.90;;;;;;4960754;28;20435;-79
2022/01/31 14:34:05;;;;;;;1901.70;439.40;;;5.60;99.90;;;;;;4959076;28;20480;-79
2022/01/31 14:36:36;;;;;;;1902.13;579.70;;;5.60;99.90;;;;;;4959214;28;20441;-79
2022/01/31 14:39:13;;;;;;;1012.70;278.03;;;5.60;99.90;;;;;;4960037;28;20501;-79
2022/01/31 14:47:24;;;;;;;1919.97;769.97;;;5.40;99.90;;;;;;4959572;28;20553;-79
2022/01/31 14:50:05;;;;;;;1734.00;532.23;;;5.30;99.90;;;;;;4960279;28;20439;-79
2022/01/31 14:52:34;;;;;;;1999.90;999.90;;;5.30;99.90;;;;;;4959408;28;20788;-79
2022/01/31 14:55:05;;;;;;;1948.80;552.67;;;5.20;99.90;;;;;;4959068;28;20536;-79
2022/01/31 14:57:42;;;;;;;1995.13;552.63;;;5.20;99.90;;;;;;4959188;28;20887;-79
2022/01/31 15:04:30;;;;;;;1999.90;375.00;;;5.00;99.90;;;;;;4979098;28;20859;-79
2022/01/31 15:07:00;;;;;;;1999.90;999.90;;;5.00;99.90;;;;;;4932988;28;20466;-78
2022/01/31 15:09:34;;;;;;;1999.90;999.90;;;5.00;99.90;;;;;;4922218;29;20458;-79
2022/01/31 15:12:05;;;;;;;1999.90;999.90;;;4.90;99.90;;;;;;4938891;28;20483;-79
2022/01/31 15:14:35;;;;;;;1999.90;999.90;;;4.90;99.90;;;;;;4922388;28;20476;-79
2022/01/31 15:17:06;;;;;;;1999.90;999.90;;;4.90;99.90;;;;;;4922576;28;20542;-79
2022/01/31 15:19:35;;;;;;;1999.90;999.90;;;4.80;99.90;;;;;;4923137;29;20459;-79
2022/01/31 15:22:03;;;;;;;1999.90;999.90;;;4.70;99.90;;;;;;4922750;28;20466;-79
2022/01/31 15:24:32;;;;;;;1999.90;999.90;;;4.70;99.90;;;;;;4922812;28;20857;-79
2022/01/31 15:27:00;;;;;;;1999.90;999.90;;;4.70;99.90;;;;;;4922286;28;20458;-79
2022/01/31 15:29:30;;;;;;;1999.90;999.90;;;4.60;99.90;;;;;;4938158;28;20995;-79
2022/01/31 15:32:03;;;;;;;1999.90;999.90;;;4.60;99.90;;;;;;4922246;28;20465;-78
2022/01/31 15:34:32;;;;;;;1999.90;999.90;;;4.60;99.90;;;;;;4943271;29;20478;-79
2022/01/31 15:37:03;;;;;;;1999.90;999.90;;;4.60;99.90;;;;;;4958789;28;20808;-78
2022/01/31 15:39:32;;;;;;;1999.90;999.90;;;4.50;99.90;;;;;;4957880;28;20461;-79
2022/01/31 15:42:03;;;;;;;1999.90;999.90;;;4.60;99.90;;;;;;4957979;28;20524;-79
2022/01/31 15:44:39;;;;;;;1999.90;999.90;;;4.50;99.90;;;;;;4958726;28;21019;-79
2022/01/31 15:47:10;;;;;;;1999.90;336.33;;;4.50;99.90;;;;;;4958422;28;20457;-79
2022/01/31 15:49:38;;;;;;;1999.90;999.90;;;4.50;99.90;;;;;;4958723;28;20485;-79
2022/01/31 15:52:27;;;;;;;1999.90;999.90;;;4.50;99.90;;;;;;4959458;28;20457;-79
2022/01/31 15:54:56;;;;;;;1999.90;999.90;;;4.40;99.90;;;;;;4958330;28;20482;-79
2022/01/31 15:57:36;;;;;;;1999.90;999.90;;;4.40;99.90;;;;;;4957433;28;20510;-79
2022/01/31 16:00:10;;;;;;;1999.90;999.90;;;4.40;99.90;;;;;;4956900;28;20463;-79
2022/01/31 16:02:47;;;;;;;1999.90;999.90;;;4.40;99.90;;;;;;4958862;28;20457;-79
2022/01/31 16:05:16;;;;;;;1999.90;999.90;;;4.40;99.90;;;;;;4957184;28;20875;-79
2022/01/31 16:07:44;;;;;;;1999.90;999.90;;;4.40;99.90;;;;;;4956448;28;20566;-78
2022/01/31 16:10:13;;;;;;;1999.90;999.90;;;4.40;99.90;;;;;;4957070;28;20447;-78
2022/01/31 16:12:42;;;;;;;1999.90;999.90;;;4.40;99.90;;;;;;4956768;28;20459;-79